Time;durP1;ratioP1;P1;durP2;ratioP2;P2;SDS_P1;SDS_P2;PMS_P1;PMS_P2;Temp;Humidity;BMP_temperature;BMP_pressure;BME280_temperature;BME280_humidity;BME280_pressure;Samples;Min_cycle;Max_cycle;Signal;HPM_P1;HPM_P2
2023/11/03 00:01:46;;;;;;;19.93;16.67;;;;;;;;;;5000772;28;20025;-51
2023/11/03 00:04:12;;;;;;;23.80;19.13;;;;;;;;;;5013562;28;20503;-50
2023/11/03 00:06:43;;;;;;;21.48;17.55;;;;;;;;;;5023678;28;20034;-51
2023/11/03 00:09:09;;;;;;;20.75;17.75;;;;;;;;;;4999199;28;20488;-50
2023/11/03 00:11:35;;;;;;;20.45;17.38;;;;;;;;;;5015869;28;20113;-50
2023/11/03 00:14:04;;;;;;;21.67;18.45;;;;;;;;;;5021486;28;20042;-51
2023/11/03 00:16:30;;;;;;;22.83;17.83;;;;;;;;;;4995071;28;20109;-51
2023/11/03 00:18:59;;;;;;;21.45;18.33;;;;;;;;;;4979837;28;20018;-50
2023/11/03 00:21:30;;;;;;;23.65;18.80;;;;;;;;;;5010214;28;20527;-51
2023/11/03 00:23:56;;;;;;;21.80;17.80;;;;;;;;;;5016948;28;20021;-50
2023/11/03 00:26:22;;;;;;;18.63;16.70;;;;;;;;;;5022575;28;20474;-50
2023/11/03 00:28:49;;;;;;;22.27;17.55;;;;;;;;;;5021129;28;20492;-50
2023/11/03 00:31:16;;;;;;;19.73;16.47;;;;;;;;;;5002278;28;20053;-50
2023/11/03 00:33:44;;;;;;;19.67;17.00;;;;;;;;;;5005965;28;20250;-51
2023/11/03 00:36:14;;;;;;;22.27;17.60;;;;;;;;;;5023820;28;20370;-52
2023/11/03 00:38:44;;;;;;;20.08;17.08;;;;;;;;;;4994137;28;20129;-49
2023/11/03 00:41:14;;;;;;;21.08;16.98;;;;;;;;;;5000071;28;20068;-51
2023/11/03 00:43:46;;;;;;;19.15;17.23;;;;;;;;;;5006915;28;20030;-51
2023/11/03 00:46:13;;;;;;;19.83;17.45;;;;;;;;;;5007828;28;20132;-50
2023/11/03 00:48:42;;;;;;;19.05;16.73;;;;;;;;;;5026839;28;20087;-50
2023/11/03 00:51:09;;;;;;;22.10;18.75;;;;;;;;;;5032653;28;20112;-53
2023/11/03 00:53:35;;;;;;;24.95;18.15;;;;;;;;;;5014716;28;20064;-51
2023/11/03 00:56:04;;;;;;;21.98;17.92;;;;;;;;;;5007683;28;20026;-51
2023/11/03 00:58:31;;;;;;;21.63;17.75;;;;;;;;;;5009024;28;20503;-50
2023/11/03 01:00:58;;;;;;;21.15;17.75;;;;;;;;;;5013383;28;20025;-50
2023/11/03 01:03:24;;;;;;;19.33;15.98;;;;;;;;;;5013150;28;20407;-50
2023/11/03 01:05:51;;;;;;;18.93;16.00;;;;;;;;;;5011621;28;20083;-50
2023/11/03 01:08:17;;;;;;;17.83;15.73;;;;;;;;;;4994246;28;20044;-53
2023/11/03 01:10:43;;;;;;;20.02;17.00;;;;;;;;;;5013806;28;20060;-50
2023/11/03 01:13:10;;;;;;;19.67;17.58;;;;;;;;;;4995155;28;20522;-50
2023/11/03 01:15:40;;;;;;;19.77;16.42;;;;;;;;;;4997053;28;20033;-50
2023/11/03 01:18:06;;;;;;;18.88;16.75;;;;;;;;;;5005215;28;20026;-50
2023/11/03 01:20:35;;;;;;;20.52;18.05;;;;;;;;;;4977520;28;20339;-50
2023/11/03 01:23:02;;;;;;;19.38;16.92;;;;;;;;;;4996806;28;20069;-53
2023/11/03 01:25:28;;;;;;;22.23;17.88;;;;;;;;;;5016025;28;20572;-50
2023/11/03 01:27:55;;;;;;;22.55;18.38;;;;;;;;;;5023645;28;20033;-51
2023/11/03 01:30:21;;;;;;;22.63;18.60;;;;;;;;;;5016591;28;20033;-50
2023/11/03 01:32:48;;;;;;;19.70;17.42;;;;;;;;;;4999718;28;20128;-50
2023/11/03 01:35:14;;;;;;;23.50;19.00;;;;;;;;;;4998367;28;20068;-50
2023/11/03 01:37:45;;;;;;;22.75;18.40;;;;;;;;;;5022802;28;20030;-50
2023/11/03 01:40:14;;;;;;;24.05;18.77;;;;;;;;;;4980817;28;20508;-50
2023/11/03 01:42:42;;;;;;;22.98;18.02;;;;;;;;;;5026449;28;20512;-50
2023/11/03 01:45:08;;;;;;;20.42;17.65;;;;;;;;;;5012898;28;20064;-50
2023/11/03 01:47:34;;;;;;;22.95;17.88;;;;;;;;;;5008350;28;20038;-50
2023/11/03 01:50:01;;;;;;;18.65;16.17;;;;;;;;;;5014871;28;20392;-50
2023/11/03 01:52:28;;;;;;;19.63;16.98;;;;;;;;;;5008438;28;20033;-52
2023/11/03 01:54:54;;;;;;;20.55;17.10;;;;;;;;;;4999532;28;20121;-50
2023/11/03 01:57:21;;;;;;;21.13;16.83;;;;;;;;;;5018513;28;20029;-50
2023/11/03 01:59:47;;;;;;;20.00;17.93;;;;;;;;;;5011811;28;20033;-50
2023/11/03 02:02:14;;;;;;;18.48;16.25;;;;;;;;;;5009574;28;20112;-50
2023/11/03 02:04:41;;;;;;;;;;;;;;;;;;5026100;28;20034;-50
2023/11/03 02:07:07;;;;;;;21.65;17.20;;;;;;;;;;5002256;28;19996;-50
2023/11/03 02:13:04;;;;;;;19.95;17.85;;;;;;;;;;5015863;28;20144;-51
2023/11/03 02:15:30;;;;;;;24.75;18.73;;;;;;;;;;5007004;28;20034;-50
2023/11/03 02:17:57;;;;;;;18.92;16.92;;;;;;;;;;5021174;28;20022;-50
2023/11/03 02:20:23;;;;;;;19.60;17.60;;;;;;;;;;5033663;28;20074;-51
2023/11/03 02:22:53;;;;;;;24.58;18.48;;;;;;;;;;5020361;28;20489;-50
2023/11/03 02:25:20;;;;;;;20.90;18.10;;;;;;;;;;5013750;28;20057;-52
2023/11/03 02:27:46;;;;;;;20.58;18.45;;;;;;;;;;5014820;28;20491;-51
2023/11/03 02:30:12;;;;;;;20.45;17.77;;;;;;;;;;5013594;28;20083;-51
2023/11/03 02:32:39;;;;;;;21.58;17.92;;;;;;;;;;5004464;28;20025;-50
2023/11/03 02:35:05;;;;;;;20.15;18.08;;;;;;;;;;5014930;28;20483;-50
2023/11/03 02:37:32;;;;;;;26.45;18.27;;;;;;;;;;5032114;28;20123;-51
2023/11/03 02:39:58;;;;;;;25.10;20.02;;;;;;;;;;5008050;28;20489;-50
2023/11/03 02:42:24;;;;;;;21.17;18.10;;;;;;;;;;5004281;28;20396;-50
2023/11/03 02:44:50;;;;;;;22.80;19.52;;;;;;;;;;5025050;28;20265;-50
2023/11/03 02:47:16;;;;;;;23.65;19.38;;;;;;;;;;4996086;28;20030;-50
2023/11/03 02:49:42;;;;;;;19.95;17.75;;;;;;;;;;5013681;28;20227;-52
2023/11/03 02:52:09;;;;;;;20.55;17.83;;;;;;;;;;5007302;28;20080;-50
2023/11/03 02:54:35;;;;;;;23.85;18.75;;;;;;;;;;4979365;28;20457;-50
2023/11/03 02:57:02;;;;;;;18.98;16.92;;;;;;;;;;5017044;28;20500;-50
2023/11/03 02:59:28;;;;;;;21.10;16.13;;;;;;;;;;5013172;28;20048;-50
2023/11/03 03:01:54;;;;;;;19.58;17.48;;;;;;;;;;4984311;28;20025;-49
2023/11/03 03:04:21;;;;;;;19.40;17.38;;;;;;;;;;5013267;28;20420;-50
2023/11/03 03:06:47;;;;;;;18.73;16.60;;;;;;;;;;5012962;28;20049;-51
2023/11/03 03:09:13;;;;;;;25.20;19.13;;;;;;;;;;4996000;28;20400;-50
2023/11/03 03:11:40;;;;;;;26.90;17.75;;;;;;;;;;5014311;28;20088;-51
2023/11/03 03:14:06;;;;;;;21.25;18.50;;;;;;;;;;4998193;28;20033;-50
2023/11/03 03:16:32;;;;;;;23.02;16.85;;;;;;;;;;5006634;28;20130;-51
2023/11/03 03:18:58;;;;;;;19.98;17.20;;;;;;;;;;5014592;28;20025;-51
2023/11/03 03:21:25;;;;;;;24.10;18.25;;;;;;;;;;5007714;28;20072;-51
2023/11/03 03:23:51;;;;;;;22.08;17.65;;;;;;;;;;5005676;28;20036;-50
2023/11/03 03:26:17;;;;;;;22.67;17.77;;;;;;;;;;4997227;28;20036;-50
2023/11/03 03:28:43;;;;;;;22.67;17.52;;;;;;;;;;4998874;28;20105;-50
2023/11/03 03:31:10;;;;;;;17.63;15.10;;;;;;;;;;5021204;28;20092;-50
2023/11/03 03:33:36;;;;;;;;;;;;;;;;;;5013942;28;20065;-51
2023/11/03 03:36:02;;;;;;;25.98;18.45;;;;;;;;;;5032062;28;20396;-50
2023/11/03 03:38:29;;;;;;;20.33;17.25;;;;;;;;;;5014412;28;20032;-50
2023/11/03 03:40:55;;;;;;;20.40;16.33;;;;;;;;;;5032055;28;20113;-50
2023/11/03 03:43:21;;;;;;;20.90;17.10;;;;;;;;;;5013243;28;20116;-49
2023/11/03 03:45:47;;;;;;;19.60;16.25;;;;;;;;;;5031286;28;20028;-50
2023/11/03 03:48:14;;;;;;;21.15;16.63;;;;;;;;;;4998111;28;20117;-53
2023/11/03 03:50:40;;;;;;;20.58;16.77;;;;;;;;;;5016543;28;20030;-50
2023/11/03 03:53:06;;;;;;;17.48;15.48;;;;;;;;;;5028895;28;20033;-50
2023/11/03 03:55:32;;;;;;;19.10;16.05;;;;;;;;;;5024325;28;20033;-50
2023/11/03 03:57:58;;;;;;;18.48;15.77;;;;;;;;;;4994475;28;20022;-50
2023/11/03 04:00:25;;;;;;;20.70;15.85;;;;;;;;;;5015324;28;20519;-50
2023/11/03 04:02:51;;;;;;;19.02;15.95;;;;;;;;;;5011553;28;20022;-50
2023/11/03 04:05:17;;;;;;;20.33;17.50;;;;;;;;;;5020976;28;20048;-50
2023/11/03 04:07:44;;;;;;;17.92;15.90;;;;;;;;;;5014189;28;20042;-50
2023/11/03 04:10:10;;;;;;;24.52;16.60;;;;;;;;;;5013712;28;20059;-51
2023/11/03 04:16:06;;;;;;;21.35;16.65;;;;;;;;;;5016806;28;20065;-50
2023/11/03 04:18:34;;;;;;;18.25;16.33;;;;;;;;;;5014957;28;20104;-50
2023/11/03 04:21:01;;;;;;;18.75;16.70;;;;;;;;;;5024831;28;20025;-50
2023/11/03 04:23:27;;;;;;;22.27;17.17;;;;;;;;;;5014255;28;20392;-51
2023/11/03 04:25:53;;;;;;;18.92;16.25;;;;;;;;;;4992551;28;20034;-50
2023/11/03 04:28:20;;;;;;;17.97;15.70;;;;;;;;;;5011886;28;20022;-52
2023/11/03 04:30:46;;;;;;;21.45;16.45;;;;;;;;;;5017203;28;20310;-50
2023/11/03 04:33:13;;;;;;;19.08;16.27;;;;;;;;;;5016393;28;20233;-50
2023/11/03 04:35:39;;;;;;;19.35;14.88;;;;;;;;;;5015991;28;20408;-51
2023/11/03 04:38:06;;;;;;;17.20;14.23;;;;;;;;;;4978149;28;20065;-50
2023/11/03 04:40:32;;;;;;;13.70;11.73;;;;;;;;;;5018255;28;20037;-50
2023/11/03 04:42:58;;;;;;;16.63;12.70;;;;;;;;;;5016276;28;20033;-50
2023/11/03 04:45:26;;;;;;;14.13;12.00;;;;;;;;;;4996403;28;20123;-50
2023/11/03 04:47:53;;;;;;;15.50;12.93;;;;;;;;;;4993995;28;20037;-51
2023/11/03 04:50:19;;;;;;;12.95;11.13;;;;;;;;;;5019078;28;20063;-50
2023/11/03 04:52:45;;;;;;;13.13;11.10;;;;;;;;;;5023193;28;20037;-51
2023/11/03 04:55:12;;;;;;;14.02;11.00;;;;;;;;;;4996350;28;20105;-50
2023/11/03 04:57:39;;;;;;;11.63;10.23;;;;;;;;;;4991965;28;20037;-50
2023/11/03 05:00:12;;;;;;;10.93;9.82;;;;;;;;;;5014239;28;20029;-52
2023/11/03 05:02:39;;;;;;;13.20;9.15;;;;;;;;;;5014226;28;20527;-50
2023/11/03 05:05:05;;;;;;;15.43;9.73;;;;;;;;;;5014083;28;20038;-51
2023/11/03 05:07:32;;;;;;;11.82;9.63;;;;;;;;;;4996731;28;20049;-52
2023/11/03 05:09:58;;;;;;;;;;;;;;;;;;5014791;28;20037;-52
2023/11/03 05:12:24;;;;;;;10.40;9.30;;;;;;;;;;5015306;28;19909;-54
2023/11/03 05:14:51;;;;;;;12.23;9.60;;;;;;;;;;4997514;28;20038;-51
2023/11/03 05:17:17;;;;;;;12.23;8.57;;;;;;;;;;5015139;28;20030;-50
2023/11/03 05:19:43;;;;;;;16.88;9.88;;;;;;;;;;5041510;23;20065;-54
2023/11/03 05:22:09;;;;;;;11.77;9.13;;;;;;;;;;5034334;28;20487;-54
2023/11/03 05:24:36;;;;;;;9.23;8.27;;;;;;;;;;5033517;28;20108;-57
2023/11/03 05:27:03;;;;;;;11.70;9.95;;;;;;;;;;5033283;28;20029;-53
2023/11/03 05:29:29;;;;;;;14.77;10.88;;;;;;;;;;5034736;28;20029;-57
2023/11/03 05:31:55;;;;;;;13.65;10.27;;;;;;;;;;5034577;28;20083;-54
2023/11/03 05:34:21;;;;;;;14.65;10.07;;;;;;;;;;5034637;28;20120;-56
2023/11/03 05:36:47;;;;;;;17.63;11.03;;;;;;;;;;5016950;28;20029;-54
2023/11/03 05:39:14;;;;;;;19.02;11.73;;;;;;;;;;5016838;28;20335;-55
2023/11/03 05:41:42;;;;;;;17.50;10.98;;;;;;;;;;5034371;28;20073;-57
2023/11/03 05:44:08;;;;;;;13.95;9.27;;;;;;;;;;5034368;28;20025;-52
2023/11/03 05:46:35;;;;;;;12.95;9.82;;;;;;;;;;5016815;28;20061;-52
2023/11/03 05:49:01;;;;;;;12.10;8.82;;;;;;;;;;5034323;28;20029;-51
2023/11/03 05:51:27;;;;;;;11.55;7.35;;;;;;;;;;5034120;28;20032;-57
2023/11/03 05:53:53;;;;;;;8.60;6.25;;;;;;;;;;5034388;28;20406;-57
2023/11/03 05:56:19;;;;;;;9.25;7.07;;;;;;;;;;5016693;28;20071;-51
2023/11/03 05:58:45;;;;;;;9.15;6.47;;;;;;;;;;5034263;28;20026;-58
2023/11/03 06:01:12;;;;;;;9.90;6.60;;;;;;;;;;5016132;28;20554;-57
2023/11/03 06:03:38;;;;;;;10.65;5.75;;;;;;;;;;5051954;28;20037;-57
2023/11/03 06:06:06;;;;;;;6.47;5.20;;;;;;;;;;5036075;28;20043;-57
2023/11/03 06:08:32;;;;;;;5.97;4.88;;;;;;;;;;5053957;28;20510;-55
2023/11/03 06:10:58;;;;;;;8.93;4.85;;;;;;;;;;5052643;28;20116;-55
2023/11/03 06:13:25;;;;;;;8.80;6.10;;;;;;;;;;5053698;28;20115;-55
2023/11/03 06:15:58;;;;;;;8.20;5.65;;;;;;;;;;5019330;28;20274;-54
2023/11/03 06:18:24;;;;;;;7.78;5.80;;;;;;;;;;5053520;28;20025;-55
2023/11/03 06:20:50;;;;;;;8.88;6.00;;;;;;;;;;5053696;28;20029;-52
2023/11/03 06:23:17;;;;;;;10.55;6.82;;;;;;;;;;5053667;28;20506;-54
2023/11/03 06:25:43;;;;;;;8.75;6.57;;;;;;;;;;5053617;28;20029;-52
2023/11/03 06:28:09;;;;;;;12.07;7.13;;;;;;;;;;5053399;28;20021;-51
2023/11/03 06:30:35;;;;;;;11.68;7.00;;;;;;;;;;5053432;28;20025;-55
2023/11/03 06:33:01;;;;;;;10.00;6.82;;;;;;;;;;5053577;28;20483;-54
2023/11/03 06:35:29;;;;;;;10.85;6.35;;;;;;;;;;5053485;28;20497;-53
2023/11/03 06:37:55;;;;;;;11.32;6.85;;;;;;;;;;5053326;28;20518;-53
2023/11/03 06:40:22;;;;;;;9.10;6.43;;;;;;;;;;5053309;28;20045;-53
2023/11/03 06:42:48;;;;;;;7.83;5.43;;;;;;;;;;5018776;28;20107;-54
2023/11/03 06:45:16;;;;;;;7.77;5.70;;;;;;;;;;5053338;28;20033;-52
2023/11/03 06:47:42;;;;;;;6.25;4.68;;;;;;;;;;5053145;28;20087;-55
2023/11/03 06:50:09;;;;;;;7.80;5.38;;;;;;;;;;5053095;28;20033;-51
2023/11/03 06:52:36;;;;;;;7.25;5.05;;;;;;;;;;5053246;28;20582;-50
2023/11/03 06:55:03;;;;;;;8.00;4.60;;;;;;;;;;5052946;28;20028;-51
2023/11/03 06:57:30;;;;;;;8.30;4.38;;;;;;;;;;5053109;28;20021;-56
2023/11/03 06:59:56;;;;;;;4.45;2.92;;;;;;;;;;5035114;28;20032;-48
2023/11/03 07:02:22;;;;;;;2.88;2.22;;;;;;;;;;5035097;28;20115;-50
2023/11/03 07:04:48;;;;;;;3.88;2.15;;;;;;;;;;5047752;28;20025;-48
2023/11/03 07:07:14;;;;;;;5.03;2.77;;;;;;;;;;5024277;28;20057;-50
2023/11/03 07:09:41;;;;;;;2.97;1.95;;;;;;;;;;5015811;28;20037;-51
2023/11/03 07:12:07;;;;;;;3.53;2.70;;;;;;;;;;5012839;28;20056;-50
2023/11/03 07:14:34;;;;;;;1.85;1.38;;;;;;;;;;4995333;28;20040;-50
2023/11/03 07:17:00;;;;;;;2.40;1.70;;;;;;;;;;5012938;28;20538;-52
2023/11/03 07:19:27;;;;;;;3.17;1.85;;;;;;;;;;4978983;28;20030;-50
2023/11/03 07:21:54;;;;;;;0.82;0.73;;;;;;;;;;5012360;28;20033;-51
2023/11/03 07:24:24;;;;;;;1.42;1.00;;;;;;;;;;5012731;28;20022;-54
2023/11/03 07:26:50;;;;;;;1.90;0.75;;;;;;;;;;5012813;28;20029;-54
2023/11/03 07:29:19;;;;;;;0.57;0.57;;;;;;;;;;5012682;28;20108;-51
2023/11/03 07:31:46;;;;;;;0.50;0.50;;;;;;;;;;5012726;28;20265;-55
2023/11/03 07:34:12;;;;;;;0.73;0.65;;;;;;;;;;5012609;28;20362;-52
2023/11/03 07:36:39;;;;;;;1.00;0.70;;;;;;;;;;5005589;28;20037;-52
2023/11/03 07:39:06;;;;;;;1.15;0.60;;;;;;;;;;5032346;28;20291;-57
2023/11/03 07:41:35;;;;;;;0.68;0.60;;;;;;;;;;5032205;28;20037;-54
2023/11/03 07:44:02;;;;;;;0.73;0.30;;;;;;;;;;5032163;28;20397;-54
2023/11/03 07:46:31;;;;;;;0.40;0.32;;;;;;;;;;5032229;28;20377;-55
2023/11/03 07:48:58;;;;;;;0.50;0.32;;;;;;;;;;5032043;28;20040;-52
2023/11/03 07:51:29;;;;;;;0.65;0.35;;;;;;;;;;5014103;28;20029;-58
2023/11/03 07:53:55;;;;;;;1.10;0.40;;;;;;;;;;5031969;28;20045;-60
2023/11/03 07:56:21;;;;;;;1.83;0.28;;;;;;;;;;5014290;28;20026;-56
2023/11/03 07:58:48;;;;;;;1.00;0.28;;;;;;;;;;5031976;28;20026;-55
2023/11/03 08:01:14;;;;;;;0.32;0.30;;;;;;;;;;5031860;28;20037;-54
2023/11/03 08:03:41;;;;;;;0.30;0.30;;;;;;;;;;5031986;28;20442;-55
2023/11/03 08:06:07;;;;;;;2.08;0.20;;;;;;;;;;5025303;28;20025;-56
2023/11/03 08:08:34;;;;;;;0.57;0.30;;;;;;;;;;5012078;28;20026;-55
2023/11/03 08:11:03;;;;;;;3.22;0.30;;;;;;;;;;5011972;28;20026;-57
2023/11/03 08:13:29;;;;;;;2.17;0.45;;;;;;;;;;5011977;28;20026;-54
2023/11/03 08:19:25;;;;;;;6.20;0.70;;;;;;;;;;5012064;28;20065;-55
2023/11/03 08:21:51;;;;;;;0.10;0.10;;;;;;;;;;5011624;28;20373;-54
2023/11/03 08:24:17;;;;;;;3.08;0.30;;;;;;;;;;5012024;28;20095;-57
2023/11/03 08:26:43;;;;;;;0.20;0.20;;;;;;;;;;5012276;28;20046;-53
2023/11/03 08:29:10;;;;;;;0.10;0.10;;;;;;;;;;5011876;28;20116;-52
2023/11/03 08:31:36;;;;;;;0.30;0.10;;;;;;;;;;5011762;28;20069;-54
2023/11/03 08:34:04;;;;;;;0.10;0.10;;;;;;;;;;5013934;28;20483;-53
2023/11/03 08:36:34;;;;;;;0.40;0.40;;;;;;;;;;5015698;28;20109;-52
2023/11/03 08:39:00;;;;;;;0.10;0.10;;;;;;;;;;5015902;28;20485;-55
2023/11/03 08:41:26;;;;;;;0.85;0.40;;;;;;;;;;4981816;28;20026;-57
2023/11/03 08:43:53;;;;;;;1.00;0.50;;;;;;;;;;5015796;28;20022;-57
2023/11/03 08:46:19;;;;;;;0.65;0.65;;;;;;;;;;5015752;28;20034;-54
2023/11/03 08:48:46;;;;;;;2.60;0.85;;;;;;;;;;5015596;28;20028;-52
2023/11/03 08:51:12;;;;;;;0.40;0.13;;;;;;;;;;5015481;28;20032;-52
2023/11/03 08:53:40;;;;;;;0.17;0.10;;;;;;;;;;4998311;28;20373;-51
2023/11/03 08:56:06;;;;;;;0.45;0.20;;;;;;;;;;4998012;28;20030;-51
2023/11/03 08:58:34;;;;;;;0.20;0.20;;;;;;;;;;4997971;28;20054;-51
2023/11/03 09:01:00;;;;;;;0.17;0.10;;;;;;;;;;4981469;28;20058;-51
2023/11/03 09:03:28;;;;;;;1.35;0.10;;;;;;;;;;5015599;28;20084;-51
2023/11/03 09:05:54;;;;;;;1.05;0.50;;;;;;;;;;5015302;28;20030;-54
2023/11/03 09:08:20;;;;;;;0.30;0.30;;;;;;;;;;5015337;28;20033;-51
2023/11/03 09:10:47;;;;;;;0.27;0.20;;;;;;;;;;5015209;28;20029;-52
2023/11/03 09:13:13;;;;;;;1.30;0.60;;;;;;;;;;5015246;28;20271;-49
2023/11/03 09:15:39;;;;;;;4.57;0.40;;;;;;;;;;5015262;28;20033;-52
2023/11/03 09:18:05;;;;;;;0.98;0.28;;;;;;;;;;5015543;28;20083;-54
2023/11/03 09:20:31;;;;;;;0.98;0.75;;;;;;;;;;5014885;28;20057;-50
2023/11/03 09:22:58;;;;;;;0.15;0.15;;;;;;;;;;5014967;28;20038;-53
2023/11/03 09:25:24;;;;;;;0.20;0.20;;;;;;;;;;5014905;28;20033;-52
2023/11/03 09:27:50;;;;;;;0.20;0.20;;;;;;;;;;5015109;28;20026;-53
2023/11/03 09:30:16;;;;;;;1.95;0.20;;;;;;;;;;5014906;28;20053;-51
2023/11/03 09:32:43;;;;;;;0.10;0.10;;;;;;;;;;4997211;28;20506;-51
2023/11/03 09:35:09;;;;;;;0.10;0.10;;;;;;;;;;4997140;28;20113;-52
2023/11/03 09:37:36;;;;;;;0.10;0.10;;;;;;;;;;4997177;28;20026;-53
2023/11/03 09:52:38;;;;;;;0.17;0.10;;;;;;;;;;5129706;27;20407;-49
2023/11/03 09:55:06;;;;;;;0.10;0.10;;;;;;;;;;5129685;27;20030;-50
2023/11/03 09:57:32;;;;;;;0.20;0.20;;;;;;;;;;5129769;27;20019;-50
2023/11/03 10:00:00;;;;;;;1.83;0.30;;;;;;;;;;5129667;27;20020;-49
2023/11/03 10:02:28;;;;;;;0.13;0.10;;;;;;;;;;5129480;27;20024;-49
2023/11/03 10:04:55;;;;;;;0.10;0.10;;;;;;;;;;5157695;22;20037;-63
2023/11/03 10:07:21;;;;;;;0.38;0.20;;;;;;;;;;5070565;28;20092;-63
2023/11/03 10:09:47;;;;;;;0.98;0.43;;;;;;;;;;5088505;28;20024;-63
2023/11/03 10:12:15;;;;;;;0.10;0.10;;;;;;;;;;5088463;28;20048;-63
2023/11/03 10:14:41;;;;;;;0.15;0.10;;;;;;;;;;5088550;28;20016;-63
2023/11/03 10:17:08;;;;;;;0.63;0.20;;;;;;;;;;5053912;28;20035;-64
2023/11/03 10:19:34;;;;;;;0.23;0.20;;;;;;;;;;5088583;28;20051;-63
2023/11/03 10:22:06;;;;;;;0.40;0.40;;;;;;;;;;5070126;28;20063;-63
2023/11/03 10:24:33;;;;;;;0.20;0.20;;;;;;;;;;5088321;28;20040;-63
2023/11/03 10:27:00;;;;;;;0.20;0.20;;;;;;;;;;5088380;28;20037;-63
2023/11/03 10:29:26;;;;;;;0.57;0.22;;;;;;;;;;5088373;28;20020;-64
2023/11/03 10:31:53;;;;;;;0.55;0.25;;;;;;;;;;5088172;28;20119;-64
2023/11/03 10:34:20;;;;;;;0.47;0.20;;;;;;;;;;5088198;28;20110;-64
2023/11/03 10:36:48;;;;;;;0.10;0.10;;;;;;;;;;5088107;28;20033;-63
2023/11/03 10:39:15;;;;;;;0.28;0.17;;;;;;;;;;5088101;28;20024;-64
2023/11/03 10:41:42;;;;;;;0.35;0.35;;;;;;;;;;5087833;28;20028;-65
2023/11/03 10:44:13;;;;;;;0.22;0.22;;;;;;;;;;5069791;28;20119;-64
2023/11/03 10:46:43;;;;;;;0.32;0.20;;;;;;;;;;5087941;28;20402;-64
2023/11/03 10:49:29;;;;;;;1.05;0.57;;;;;;;;;;5087906;28;20097;-65
2023/11/03 10:52:03;;;;;;;0.30;0.30;;;;;;;;;;5083071;28;20429;-64
2023/11/03 10:54:52;;;;;;;0.80;0.30;;;;;;;;;;5074266;28;20047;-64
2023/11/03 10:57:19;;;;;;;0.40;0.38;;;;;;;;;;5074738;28;20047;-64
2023/11/03 10:59:48;;;;;;;0.30;0.30;;;;;;;;;;5074159;28;20426;-64
2023/11/03 11:02:14;;;;;;;0.40;0.40;;;;;;;;;;5056207;28;20036;-64
2023/11/03 11:04:55;;;;;;;1.80;0.43;;;;;;;;;;5074026;28;20108;-64
2023/11/03 11:07:22;;;;;;;0.35;0.30;;;;;;;;;;5056284;28;20075;-64
2023/11/03 11:09:49;;;;;;;1.10;0.38;;;;;;;;;;5074031;28;20082;-64
2023/11/03 11:12:15;;;;;;;2.40;0.47;;;;;;;;;;5073731;28;20536;-64
2023/11/03 11:14:42;;;;;;;0.10;0.10;;;;;;;;;;5055990;28;20060;-64
2023/11/03 11:17:16;;;;;;;0.10;0.10;;;;;;;;;;5070602;28;20528;-64
2023/11/03 11:19:44;;;;;;;5.32;0.38;;;;;;;;;;5038517;28;20033;-64
2023/11/03 11:22:10;;;;;;;;;;;;;;;;;;5069448;28;20514;-65
2023/11/03 11:24:39;;;;;;;0.30;0.20;;;;;;;;;;5055274;28;19974;-64
2023/11/03 11:27:16;;;;;;;3.13;0.63;;;;;;;;;;5064650;28;20025;-58
2023/11/03 11:29:43;;;;;;;0.85;0.50;;;;;;;;;;5068287;28;20096;-64
2023/11/03 11:32:11;;;;;;;0.55;0.25;;;;;;;;;;5083354;28;20402;-64
2023/11/03 11:34:40;;;;;;;0.45;0.40;;;;;;;;;;5076642;28;20143;-64
2023/11/03 11:37:29;;;;;;;0.30;0.30;;;;;;;;;;5073443;28;20039;-64
2023/11/03 11:40:00;;;;;;;0.77;0.60;;;;;;;;;;5071163;28;20484;-64
2023/11/03 11:42:37;;;;;;;0.28;0.28;;;;;;;;;;5069952;28;20021;-64
2023/11/03 11:45:07;;;;;;;0.40;0.40;;;;;;;;;;5067471;28;20028;-64
2023/11/03 11:47:35;;;;;;;0.63;0.43;;;;;;;;;;5052878;28;20032;-63
2023/11/03 11:50:05;;;;;;;0.57;0.40;;;;;;;;;;5071689;28;20029;-54
2023/11/03 11:52:31;;;;;;;0.50;0.40;;;;;;;;;;5071533;28;20028;-53
2023/11/03 11:54:58;;;;;;;9.65;0.73;;;;;;;;;;5071598;28;20058;-55
2023/11/03 11:57:25;;;;;;;;;;;;;;;;;;5054254;28;20060;-55
2023/11/03 11:59:56;;;;;;;1.55;0.40;;;;;;;;;;5071408;28;19912;-55
2023/11/03 12:02:23;;;;;;;0.38;0.38;;;;;;;;;;5069477;28;20139;-67
2023/11/03 12:04:50;;;;;;;0.32;0.30;;;;;;;;;;5070598;28;20027;-66
2023/11/03 12:07:17;;;;;;;;;;;;;;;;;;5047196;28;20399;-66
2023/11/03 12:09:45;;;;;;;1.05;0.40;;;;;;;;;;5053873;28;20432;-64
2023/11/03 12:12:12;;;;;;;0.90;0.65;;;;;;;;;;5070975;28;20033;-64
2023/11/03 12:14:38;;;;;;;0.75;0.47;;;;;;;;;;5057850;28;20120;-65
2023/11/03 12:17:05;;;;;;;1.20;1.10;;;;;;;;;;5048804;28;20028;-63
2023/11/03 12:19:31;;;;;;;2.33;1.23;;;;;;;;;;5052511;28;20325;-62
2023/11/03 12:21:57;;;;;;;1.45;0.68;;;;;;;;;;5051345;28;20032;-61
2023/11/03 12:24:24;;;;;;;0.57;0.57;;;;;;;;;;5056521;28;20036;-62
2023/11/03 12:26:51;;;;;;;2.30;0.65;;;;;;;;;;5071679;28;20025;-63
2023/11/03 12:29:36;;;;;;;0.52;0.52;;;;;;;;;;5050621;28;20021;-62
2023/11/03 12:32:04;;;;;;;1.73;0.70;;;;;;;;;;5068243;28;20102;-53
2023/11/03 12:34:31;;;;;;;0.98;0.60;;;;;;;;;;5072115;28;20037;-64
2023/11/03 12:36:58;;;;;;;0.63;0.57;;;;;;;;;;5052588;28;20079;-65
2023/11/03 12:39:24;;;;;;;;;;;;;;;;;;5062206;28;20184;-65
2023/11/03 12:42:01;;;;;;;0.50;0.50;;;;;;;;;;5034201;28;19915;-65
2023/11/03 12:44:27;;;;;;;1.52;0.80;;;;;;;;;;5051975;28;20048;-65
2023/11/03 12:46:54;;;;;;;0.73;0.40;;;;;;;;;;5056879;28;20079;-65
2023/11/03 12:49:24;;;;;;;1.55;0.47;;;;;;;;;;5055427;28;20108;-65
2023/11/03 12:51:53;;;;;;;2.28;0.73;;;;;;;;;;5052887;28;20021;-64
2023/11/03 12:54:21;;;;;;;2.22;0.65;;;;;;;;;;5053013;28;20045;-65
2023/11/03 12:56:54;;;;;;;0.47;0.40;;;;;;;;;;5054253;28;20025;-66
2023/11/03 12:59:22;;;;;;;0.40;0.40;;;;;;;;;;5072263;28;20036;-65
2023/11/03 13:01:50;;;;;;;0.85;0.40;;;;;;;;;;5036767;28;20033;-65
2023/11/03 13:04:18;;;;;;;0.65;0.45;;;;;;;;;;5053542;28;20032;-65
2023/11/03 13:06:47;;;;;;;1.33;0.60;;;;;;;;;;5067430;28;20033;-65
2023/11/03 13:09:16;;;;;;;1.75;0.60;;;;;;;;;;5067348;28;20108;-65
2023/11/03 13:11:42;;;;;;;0.63;0.40;;;;;;;;;;5062401;28;20510;-65
2023/11/03 13:14:09;;;;;;;2.17;0.57;;;;;;;;;;5036743;28;20127;-64
2023/11/03 13:16:36;;;;;;;1.95;0.55;;;;;;;;;;5043627;28;20036;-65
2023/11/03 13:19:02;;;;;;;0.57;0.47;;;;;;;;;;5071897;28;20029;-65
2023/11/03 13:21:31;;;;;;;0.93;0.75;;;;;;;;;;5071104;28;20036;-65
2023/11/03 13:23:57;;;;;;;2.15;0.55;;;;;;;;;;5075386;28;20486;-65
2023/11/03 13:26:23;;;;;;;0.55;0.55;;;;;;;;;;5070750;28;20021;-64
2023/11/03 13:28:49;;;;;;;0.82;0.57;;;;;;;;;;5051749;28;20078;-64
2023/11/03 13:31:16;;;;;;;0.70;0.60;;;;;;;;;;5060876;28;20125;-64
2023/11/03 13:33:44;;;;;;;0.88;0.70;;;;;;;;;;5040407;28;20390;-65
2023/11/03 13:36:12;;;;;;;3.55;0.95;;;;;;;;;;5041121;28;20120;-64
2023/11/03 13:38:40;;;;;;;1.42;0.82;;;;;;;;;;5071509;28;20491;-65
2023/11/03 13:41:08;;;;;;;1.00;0.82;;;;;;;;;;5071419;28;20064;-65
2023/11/03 13:43:39;;;;;;;0.93;0.73;;;;;;;;;;5071566;28;20029;-64
2023/11/03 13:49:35;;;;;;;1.33;1.05;;;;;;;;;;5060827;28;20032;-65
2023/11/03 13:52:02;;;;;;;1.10;1.00;;;;;;;;;;5052988;28;20112;-60
2023/11/03 13:54:31;;;;;;;1.67;1.08;;;;;;;;;;5071302;28;20028;-62
2023/11/03 13:56:59;;;;;;;6.55;5.22;;;;;;;;;;5071194;28;20486;-59
2023/11/03 13:59:27;;;;;;;3.60;1.50;;;;;;;;;;5070868;28;20043;-56
2023/11/03 14:01:56;;;;;;;1.60;0.98;;;;;;;;;;5070675;28;20036;-60
2023/11/03 14:04:25;;;;;;;0.95;0.80;;;;;;;;;;5070951;28;20055;-61
2023/11/03 14:06:55;;;;;;;2.20;0.90;;;;;;;;;;5071251;28;20040;-60
2023/11/03 14:09:26;;;;;;;1.85;0.90;;;;;;;;;;5071333;28;20025;-57
2023/11/03 14:11:57;;;;;;;2.67;1.08;;;;;;;;;;5071229;28;20032;-57
2023/11/03 14:14:28;;;;;;;4.20;0.88;;;;;;;;;;5059117;28;20042;-56
2023/11/03 14:16:54;;;;;;;1.25;0.90;;;;;;;;;;5061512;28;20380;-57
2023/11/03 14:19:21;;;;;;;4.20;0.85;;;;;;;;;;5039703;28;20029;-58
2023/11/03 14:21:49;;;;;;;1.65;1.05;;;;;;;;;;5069835;28;20441;-64
2023/11/03 14:24:17;;;;;;;2.28;1.08;;;;;;;;;;5070938;28;20031;-64
2023/11/03 14:26:48;;;;;;;3.33;1.15;;;;;;;;;;5071309;28;20549;-63
2023/11/03 14:29:18;;;;;;;4.25;1.50;;;;;;;;;;5074872;28;20073;-64
2023/11/03 14:31:45;;;;;;;2.30;1.45;;;;;;;;;;5069633;28;20356;-64
2023/11/03 14:34:14;;;;;;;1.92;1.52;;;;;;;;;;5063322;28;20498;-64
2023/11/03 14:36:44;;;;;;;5.13;2.08;;;;;;;;;;5074788;28;20036;-64
2023/11/03 14:39:15;;;;;;;2.40;1.50;;;;;;;;;;5074613;28;20020;-64
2023/11/03 14:41:46;;;;;;;1.60;1.20;;;;;;;;;;5071373;28;20394;-64
2023/11/03 14:44:14;;;;;;;2.58;1.15;;;;;;;;;;5068635;28;20031;-64
2023/11/03 14:46:49;;;;;;;1.58;1.10;;;;;;;;;;5056410;28;20070;-64
2023/11/03 14:49:18;;;;;;;1.40;1.30;;;;;;;;;;5049625;28;20025;-64
2023/11/03 14:51:45;;;;;;;;;;;;;;;;;;5048363;28;20500;-64
2023/11/03 14:54:14;;;;;;;1.20;1.10;;;;;;;;;;5070958;28;19941;-64
2023/11/03 14:56:41;;;;;;;1.08;0.98;;;;;;;;;;5076018;28;20100;-64
2023/11/03 14:59:07;;;;;;;3.50;1.17;;;;;;;;;;5094429;28;20024;-64
2023/11/03 15:01:33;;;;;;;2.63;1.20;;;;;;;;;;5093732;28;20028;-64
2023/11/03 15:04:04;;;;;;;1.45;1.17;;;;;;;;;;5094338;28;20059;-64